Tuesday, October 17, 2017, 2:53 PM EDT
Back to Local

KBID, Block Island, Block Island State Airport

Location: Block Island, RI, United States Lat: 41.167
Local Time: 2:53 PM EDT (18:53 GMT) Lon: -71.567
Time Zone: US/Eastern Elev: 108 ft

Show me the last for .
Show Decoded

2017-10-17 13:56 METAR KBID 171756Z AUTO 01005KT 10SM CLR 12/02 A3028 RMK AO2 SLP259 6////
                 T01170017 10117 20067 56006 =
2017-10-17 12:56 METAR KBID 171656Z AUTO 06005KT 10SM CLR 11/01 A3028 RMK AO2 SLP259 T01110006 =
2017-10-17 11:56 METAR KBID 171556Z AUTO 02008KT 10SM CLR 11/01 A3030 RMK AO2 SLP264 T01110011 =
2017-10-17 10:56 METAR KBID 171456Z AUTO 36008KT 10SM CLR 10/01 A3030 RMK AO2 SLP265 T01000011
                 50005 =
2017-10-17 09:56 METAR KBID 171356Z AUTO 01010KT 10SM CLR 09/02 A3030 RMK AO2 SLP266 T00890022 =
2017-10-17 08:56 METAR KBID 171256Z AUTO 36009G16KT 10SM CLR 08/02 A3030 RMK AO2 SLP266 T00780022
                 =
2017-10-17 07:56 METAR KBID 171156Z AUTO 01011G19KT 10SM CLR 07/02 A3028 RMK AO2 SLP259 T00670022
                 10078 20061 53022 =
2017-10-17 06:56 METAR KBID 171056Z AUTO 01015G23KT 10SM CLR 07/02 A3025 RMK AO2 SLP248 T00670017
                 =
2017-10-17 05:56 METAR KBID 170956Z AUTO 36011G18KT 10SM CLR 07/01 A3024 RMK AO2 SLP245 T00670011
                 =
2017-10-17 04:56 METAR KBID 170856Z AUTO 36012G20KT 10SM CLR 07/01 A3022 RMK AO2 SLP237 T00720011
                 53013 =
2017-10-17 03:56 METAR KBID 170756Z AUTO 01011G20KT 10SM CLR 08/01 A3020 RMK AO2 SLP232 T00780011
                 =
2017-10-17 02:56 METAR KBID 170656Z AUTO 01013G20KT 10SM CLR 08/02 A3019 RMK AO2 SLP226 T00780017
                 =
2017-10-17 01:56 METAR KBID 170556Z AUTO 01015G21KT 10SM CLR 08/01 A3018 RMK AO2 SLP223 T00780011
                 10117 20078 51012 =
2017-10-17 00:56 METAR KBID 170456Z AUTO 36014G22KT 10SM CLR 08/01 A3017 RMK AO2 SLP221 T00830011
                 =
2017-10-16 23:56 METAR KBID 170356Z AUTO 01014G20KT 10SM CLR 09/03 A3016 RMK AO2 SLP218 T00890033
                 401890089 =
2017-10-16 22:56 METAR KBID 170256Z AUTO 35010KT 10SM CLR 10/03 A3014 RMK AO2 SLP211 T01000033
                 51021 =
2017-10-16 21:56 METAR KBID 170156Z AUTO 35010G16KT 10SM FEW044 11/04 A3012 RMK AO2 SLP205
                 T01060039 =
2017-10-16 20:56 METAR KBID 170056Z AUTO 36011G16KT 10SM CLR 11/04 A3010 RMK AO2 SLP197 T01110044
                 =
2017-10-16 20:27 METAR KBID 170027Z AUTO 35012G15KT 10SM SCT028 11/05 A3008 RMK AO2 =
2017-10-16 19:32 METAR KBID 162332Z AUTO 34008KT 10SM BKN028 12/06 A3006 RMK AO2 =
2017-10-16 18:56 METAR KBID 162256Z AUTO 35010KT 10SM BKN049 12/06 A3005 RMK AO2 SLP178 T01220061
                 =
2017-10-16 17:56 METAR KBID 162156Z AUTO 34010KT 10SM OVC045 12/06 A3002 RMK AO2 SLP169 T01220061
                 =
2017-10-16 16:56 METAR KBID 162056Z AUTO 34011KT 10SM FEW032 BKN039 13/07 A2999 RMK AO2 SLP158
                 T01280067 53020 =
2017-10-16 15:56 METAR KBID 161956Z AUTO 33008KT 10SM FEW034 13/07 A2997 RMK AO2 SLP153 T01330072
                 =
2017-10-16 14:56 METAR KBID 161856Z AUTO 33008KT 10SM CLR 13/08 A2994 RMK AO2 SLP140 T01330078 =

Support USWX by starting your Amazon purchase here.